Terminal Aerodrome Forecast
Issued by NWS Amarillo, TX

Home | Current Version | Previous Version | Text Only | Print | Product List | Glossary On
Versions: 1 2 3 4 5 6 7 8 9 10 11 12 13 14 15 16
000
FTUS44 KAMA 230500
TAFDHT
TAF
KDHT 230520Z 2306/2406 18018G28KT P6SM FEW120
     FM231400 22024G34KT P6SM SCT120
     FM240100 26016KT P6SM SCT120
     FM240500 36023G33KT P6SM BKN120=

USA.gov is the U.S. government's official web portal to all federal, state and local government web resources and services.